sensor_id;sensor_type;location;lat;lon;timestamp;P1;durP1;ratioP1;P2;durP2;ratioP2
24435;SDS011;12616;52.470;13.436;2023-03-23T00:01:21;5.30;;;4.77;;
24435;SDS011;12616;52.470;13.436;2023-03-23T00:03:51;5.17;;;3.80;;
24435;SDS011;12616;52.470;13.436;2023-03-23T00:06:22;6.60;;;3.97;;
24435;SDS011;12616;52.470;13.436;2023-03-23T00:08:50;3.60;;;3.30;;
24435;SDS011;12616;52.470;13.436;2023-03-23T00:11:20;4.23;;;3.40;;
24435;SDS011;12616;52.470;13.436;2023-03-23T00:13:48;4.23;;;3.73;;
24435;SDS011;12616;52.470;13.436;2023-03-23T00:16:17;4.80;;;3.30;;
24435;SDS011;12616;52.470;13.436;2023-03-23T00:18:45;7.97;;;4.47;;
24435;SDS011;12616;52.470;13.436;2023-03-23T00:21:14;4.37;;;3.97;;
24435;SDS011;12616;52.470;13.436;2023-03-23T00:23:41;5.50;;;4.83;;
24435;SDS011;12616;52.470;13.436;2023-03-23T00:26:10;8.43;;;5.53;;
24435;SDS011;12616;52.470;13.436;2023-03-23T00:28:38;10.10;;;7.20;;
24435;SDS011;12616;52.470;13.436;2023-03-23T00:31:06;8.90;;;5.77;;
24435;SDS011;12616;52.470;13.436;2023-03-23T00:33:34;6.80;;;4.70;;
24435;SDS011;12616;52.470;13.436;2023-03-23T00:36:06;4.70;;;4.20;;
24435;SDS011;12616;52.470;13.436;2023-03-23T00:38:34;6.33;;;3.73;;
24435;SDS011;12616;52.470;13.436;2023-03-23T00:41:02;4.23;;;3.40;;
24435;SDS011;12616;52.470;13.436;2023-03-23T00:43:29;3.47;;;2.90;;
24435;SDS011;12616;52.470;13.436;2023-03-23T00:45:58;3.97;;;3.17;;
24435;SDS011;12616;52.470;13.436;2023-03-23T00:48:26;3.77;;;3.33;;
24435;SDS011;12616;52.470;13.436;2023-03-23T00:50:54;4.60;;;3.37;;
24435;SDS011;12616;52.470;13.436;2023-03-23T00:53:21;3.00;;;2.80;;
24435;SDS011;12616;52.470;13.436;2023-03-23T00:55:49;3.20;;;2.90;;
24435;SDS011;12616;52.470;13.436;2023-03-23T00:58:16;3.40;;;2.77;;
24435;SDS011;12616;52.470;13.436;2023-03-23T01:00:43;3.43;;;3.13;;
24435;SDS011;12616;52.470;13.436;2023-03-23T01:03:11;8.77;;;3.07;;
24435;SDS011;12616;52.470;13.436;2023-03-23T01:05:43;5.40;;;4.20;;
24435;SDS011;12616;52.470;13.436;2023-03-23T01:08:12;8.63;;;3.57;;
24435;SDS011;12616;52.470;13.436;2023-03-23T01:10:40;3.13;;;2.63;;
24435;SDS011;12616;52.470;13.436;2023-03-23T01:13:07;3.33;;;3.03;;
24435;SDS011;12616;52.470;13.436;2023-03-23T01:15:34;3.67;;;3.33;;
24435;SDS011;12616;52.470;13.436;2023-03-23T01:18:01;2.73;;;2.53;;
24435;SDS011;12616;52.470;13.436;2023-03-23T01:20:30;3.33;;;3.10;;
24435;SDS011;12616;52.470;13.436;2023-03-23T01:22:57;5.93;;;3.30;;
24435;SDS011;12616;52.470;13.436;2023-03-23T01:25:25;3.33;;;2.67;;
24435;SDS011;12616;52.470;13.436;2023-03-23T01:27:53;3.60;;;2.80;;
24435;SDS011;12616;52.470;13.436;2023-03-23T01:30:21;3.00;;;2.80;;
24435;SDS011;12616;52.470;13.436;2023-03-23T01:32:48;3.53;;;2.63;;
24435;SDS011;12616;52.470;13.436;2023-03-23T01:35:15;3.47;;;3.17;;
24435;SDS011;12616;52.470;13.436;2023-03-23T01:37:43;5.90;;;3.07;;
24435;SDS011;12616;52.470;13.436;2023-03-23T01:40:12;3.40;;;3.10;;
24435;SDS011;12616;52.470;13.436;2023-03-23T01:42:40;4.17;;;3.63;;
24435;SDS011;12616;52.470;13.436;2023-03-23T01:47:56;4.80;;;3.80;;
24435;SDS011;12616;52.470;13.436;2023-03-23T01:50:28;3.80;;;3.50;;
24435;SDS011;12616;52.470;13.436;2023-03-23T01:53:01;2.90;;;2.70;;
24435;SDS011;12616;52.470;13.436;2023-03-23T01:55:33;5.33;;;3.23;;
24435;SDS011;12616;52.470;13.436;2023-03-23T01:58:03;8.80;;;4.40;;
24435;SDS011;12616;52.470;13.436;2023-03-23T02:00:31;4.30;;;3.17;;
24435;SDS011;12616;52.470;13.436;2023-03-23T02:02:59;4.90;;;3.17;;
24435;SDS011;12616;52.470;13.436;2023-03-23T02:05:28;2.97;;;2.73;;
24435;SDS011;12616;52.470;13.436;2023-03-23T02:07:59;3.40;;;3.10;;
24435;SDS011;12616;52.470;13.436;2023-03-23T02:10:30;3.50;;;3.20;;
24435;SDS011;12616;52.470;13.436;2023-03-23T02:12:58;2.73;;;2.53;;
24435;SDS011;12616;52.470;13.436;2023-03-23T02:15:29;4.87;;;3.20;;
24435;SDS011;12616;52.470;13.436;2023-03-23T02:18:06;2.67;;;2.47;;
24435;SDS011;12616;52.470;13.436;2023-03-23T02:20:47;3.00;;;2.80;;
24435;SDS011;12616;52.470;13.436;2023-03-23T02:26:40;9.03;;;2.97;;
24435;SDS011;12616;52.470;13.436;2023-03-23T02:32:16;3.30;;;3.00;;
24435;SDS011;12616;52.470;13.436;2023-03-23T02:35:02;3.23;;;2.93;;
24435;SDS011;12616;52.470;13.436;2023-03-23T02:37:36;4.23;;;3.00;;
24435;SDS011;12616;52.470;13.436;2023-03-23T02:40:12;4.37;;;2.60;;
24435;SDS011;12616;52.470;13.436;2023-03-23T02:42:43;3.10;;;2.47;;
24435;SDS011;12616;52.470;13.436;2023-03-23T02:45:15;3.00;;;2.80;;
24435;SDS011;12616;52.470;13.436;2023-03-23T02:47:43;4.27;;;3.47;;
24435;SDS011;12616;52.470;13.436;2023-03-23T02:50:14;3.50;;;2.80;;
24435;SDS011;12616;52.470;13.436;2023-03-23T02:52:44;2.80;;;2.60;;
24435;SDS011;12616;52.470;13.436;2023-03-23T02:55:13;4.00;;;3.67;;
24435;SDS011;12616;52.470;13.436;2023-03-23T02:57:41;9.90;;;4.43;;
24435;SDS011;12616;52.470;13.436;2023-03-23T03:00:11;3.27;;;2.97;;
24435;SDS011;12616;52.470;13.436;2023-03-23T03:02:40;2.93;;;2.73;;
24435;SDS011;12616;52.470;13.436;2023-03-23T03:05:10;3.23;;;3.00;;
24435;SDS011;12616;52.470;13.436;2023-03-23T03:07:49;3.70;;;3.20;;
24435;SDS011;12616;52.470;13.436;2023-03-23T03:10:34;3.23;;;3.00;;
24435;SDS011;12616;52.470;13.436;2023-03-23T03:13:10;3.30;;;3.00;;
24435;SDS011;12616;52.470;13.436;2023-03-23T03:15:42;5.30;;;2.90;;
24435;SDS011;12616;52.470;13.436;2023-03-23T03:18:12;3.47;;;2.90;;
24435;SDS011;12616;52.470;13.436;2023-03-23T03:20:47;3.17;;;2.83;;
24435;SDS011;12616;52.470;13.436;2023-03-23T03:23:16;2.90;;;2.60;;
24435;SDS011;12616;52.470;13.436;2023-03-23T03:25:45;5.10;;;3.70;;
24435;SDS011;12616;52.470;13.436;2023-03-23T03:28:14;3.50;;;3.20;;
24435;SDS011;12616;52.470;13.436;2023-03-23T03:30:46;4.17;;;3.50;;
24435;SDS011;12616;52.470;13.436;2023-03-23T03:33:16;6.90;;;3.13;;
24435;SDS011;12616;52.470;13.436;2023-03-23T03:35:46;4.30;;;3.80;;
24435;SDS011;12616;52.470;13.436;2023-03-23T03:38:14;3.20;;;3.00;;
24435;SDS011;12616;52.470;13.436;2023-03-23T03:40:41;4.87;;;4.10;;
24435;SDS011;12616;52.470;13.436;2023-03-23T03:43:08;5.97;;;3.90;;
24435;SDS011;12616;52.470;13.436;2023-03-23T03:45:35;3.30;;;3.10;;
24435;SDS011;12616;52.470;13.436;2023-03-23T03:48:02;3.93;;;3.00;;
24435;SDS011;12616;52.470;13.436;2023-03-23T03:50:29;3.63;;;2.67;;
24435;SDS011;12616;52.470;13.436;2023-03-23T03:52:57;4.17;;;3.60;;
24435;SDS011;12616;52.470;13.436;2023-03-23T03:55:24;4.23;;;3.10;;
24435;SDS011;12616;52.470;13.436;2023-03-23T03:57:53;4.50;;;3.87;;
24435;SDS011;12616;52.470;13.436;2023-03-23T04:00:20;2.77;;;2.57;;
24435;SDS011;12616;52.470;13.436;2023-03-23T04:02:49;4.10;;;3.13;;
24435;SDS011;12616;52.470;13.436;2023-03-23T04:05:19;3.30;;;3.00;;
24435;SDS011;12616;52.470;13.436;2023-03-23T04:07:46;5.23;;;3.63;;
24435;SDS011;12616;52.470;13.436;2023-03-23T04:10:18;4.53;;;2.83;;
24435;SDS011;12616;52.470;13.436;2023-03-23T04:12:47;4.40;;;3.20;;
24435;SDS011;12616;52.470;13.436;2023-03-23T04:15:14;4.40;;;2.80;;
24435;SDS011;12616;52.470;13.436;2023-03-23T04:17:41;2.70;;;2.40;;
24435;SDS011;12616;52.470;13.436;2023-03-23T04:20:08;3.20;;;2.90;;
24435;SDS011;12616;52.470;13.436;2023-03-23T04:22:40;6.37;;;3.20;;
24435;SDS011;12616;52.470;13.436;2023-03-23T04:25:09;3.30;;;3.10;;
24435;SDS011;12616;52.470;13.436;2023-03-23T04:27:39;4.63;;;3.23;;
24435;SDS011;12616;52.470;13.436;2023-03-23T04:30:08;6.83;;;3.33;;
24435;SDS011;12616;52.470;13.436;2023-03-23T04:32:38;4.03;;;3.23;;
24435;SDS011;12616;52.470;13.436;2023-03-23T04:35:07;3.60;;;3.30;;
24435;SDS011;12616;52.470;13.436;2023-03-23T04:37:36;3.50;;;3.20;;
24435;SDS011;12616;52.470;13.436;2023-03-23T04:40:04;4.20;;;3.30;;
24435;SDS011;12616;52.470;13.436;2023-03-23T04:42:36;3.83;;;3.20;;
24435;SDS011;12616;52.470;13.436;2023-03-23T04:45:07;3.63;;;2.90;;
24435;SDS011;12616;52.470;13.436;2023-03-23T04:47:35;3.97;;;3.57;;
24435;SDS011;12616;52.470;13.436;2023-03-23T04:50:06;4.60;;;4.13;;
24435;SDS011;12616;52.470;13.436;2023-03-23T04:52:46;4.90;;;3.50;;
24435;SDS011;12616;52.470;13.436;2023-03-23T04:55:13;6.17;;;3.70;;
24435;SDS011;12616;52.470;13.436;2023-03-23T04:57:40;3.77;;;3.03;;
24435;SDS011;12616;52.470;13.436;2023-03-23T05:00:10;3.80;;;2.90;;
24435;SDS011;12616;52.470;13.436;2023-03-23T05:02:39;3.50;;;3.20;;
24435;SDS011;12616;52.470;13.436;2023-03-23T05:05:06;3.90;;;3.10;;
24435;SDS011;12616;52.470;13.436;2023-03-23T05:07:35;3.80;;;3.50;;
24435;SDS011;12616;52.470;13.436;2023-03-23T05:10:03;3.97;;;2.90;;
24435;SDS011;12616;52.470;13.436;2023-03-23T05:12:30;6.13;;;3.40;;
24435;SDS011;12616;52.470;13.436;2023-03-23T05:14:57;5.10;;;3.50;;
24435;SDS011;12616;52.470;13.436;2023-03-23T05:17:26;5.23;;;3.70;;
24435;SDS011;12616;52.470;13.436;2023-03-23T05:19:55;4.97;;;3.80;;
24435;SDS011;12616;52.470;13.436;2023-03-23T05:22:22;6.30;;;3.83;;
24435;SDS011;12616;52.470;13.436;2023-03-23T05:24:49;6.03;;;4.33;;
24435;SDS011;12616;52.470;13.436;2023-03-23T05:27:17;3.53;;;3.23;;
24435;SDS011;12616;52.470;13.436;2023-03-23T05:29:44;4.00;;;3.60;;
24435;SDS011;12616;52.470;13.436;2023-03-23T05:32:13;3.47;;;3.20;;
24435;SDS011;12616;52.470;13.436;2023-03-23T05:34:42;3.50;;;3.20;;
24435;SDS011;12616;52.470;13.436;2023-03-23T05:37:09;3.90;;;3.50;;
24435;SDS011;12616;52.470;13.436;2023-03-23T05:39:37;4.27;;;3.20;;
24435;SDS011;12616;52.470;13.436;2023-03-23T05:42:04;5.63;;;4.47;;
24435;SDS011;12616;52.470;13.436;2023-03-23T05:44:32;3.53;;;3.20;;
24435;SDS011;12616;52.470;13.436;2023-03-23T05:46:59;7.10;;;3.00;;
24435;SDS011;12616;52.470;13.436;2023-03-23T05:49:26;5.10;;;3.40;;
24435;SDS011;12616;52.470;13.436;2023-03-23T05:51:55;3.10;;;2.90;;
24435;SDS011;12616;52.470;13.436;2023-03-23T05:54:22;3.10;;;2.90;;
24435;SDS011;12616;52.470;13.436;2023-03-23T05:56:49;3.00;;;2.77;;
24435;SDS011;12616;52.470;13.436;2023-03-23T05:59:15;4.50;;;3.47;;
24435;SDS011;12616;52.470;13.436;2023-03-23T06:01:42;3.13;;;2.93;;
24435;SDS011;12616;52.470;13.436;2023-03-23T06:04:09;7.43;;;4.27;;
24435;SDS011;12616;52.470;13.436;2023-03-23T06:06:37;5.03;;;3.60;;
24435;SDS011;12616;52.470;13.436;2023-03-23T06:09:05;3.60;;;2.80;;
24435;SDS011;12616;52.470;13.436;2023-03-23T06:11:32;2.70;;;2.50;;
24435;SDS011;12616;52.470;13.436;2023-03-23T06:13:59;2.53;;;2.20;;
24435;SDS011;12616;52.470;13.436;2023-03-23T06:16:26;5.57;;;3.30;;
24435;SDS011;12616;52.470;13.436;2023-03-23T06:18:53;4.20;;;3.27;;
24435;SDS011;12616;52.470;13.436;2023-03-23T06:21:21;5.67;;;3.03;;
24435;SDS011;12616;52.470;13.436;2023-03-23T06:23:48;3.10;;;2.80;;
24435;SDS011;12616;52.470;13.436;2023-03-23T06:26:17;2.90;;;2.33;;
24435;SDS011;12616;52.470;13.436;2023-03-23T06:28:46;3.33;;;3.03;;
24435;SDS011;12616;52.470;13.436;2023-03-23T06:31:14;5.00;;;2.97;;
24435;SDS011;12616;52.470;13.436;2023-03-23T06:33:44;5.77;;;2.60;;
24435;SDS011;12616;52.470;13.436;2023-03-23T06:36:12;4.63;;;3.07;;
24435;SDS011;12616;52.470;13.436;2023-03-23T06:38:39;5.93;;;2.67;;
24435;SDS011;12616;52.470;13.436;2023-03-23T06:41:06;3.80;;;2.70;;
24435;SDS011;12616;52.470;13.436;2023-03-23T06:43:35;4.63;;;3.20;;
24435;SDS011;12616;52.470;13.436;2023-03-23T06:46:04;9.17;;;4.47;;
24435;SDS011;12616;52.470;13.436;2023-03-23T06:48:31;6.87;;;3.60;;
24435;SDS011;12616;52.470;13.436;2023-03-23T06:50:58;3.40;;;3.10;;
24435;SDS011;12616;52.470;13.436;2023-03-23T06:53:25;3.80;;;3.50;;
24435;SDS011;12616;52.470;13.436;2023-03-23T06:55:52;7.33;;;3.40;;
24435;SDS011;12616;52.470;13.436;2023-03-23T06:58:19;3.37;;;3.07;;
24435;SDS011;12616;52.470;13.436;2023-03-23T07:00:52;10.53;;;3.77;;
24435;SDS011;12616;52.470;13.436;2023-03-23T07:03:20;4.87;;;3.87;;
24435;SDS011;12616;52.470;13.436;2023-03-23T07:05:47;4.30;;;3.90;;
24435;SDS011;12616;52.470;13.436;2023-03-23T07:08:14;4.47;;;3.90;;
24435;SDS011;12616;52.470;13.436;2023-03-23T07:10:40;6.90;;;3.83;;
24435;SDS011;12616;52.470;13.436;2023-03-23T07:13:07;4.03;;;3.63;;
24435;SDS011;12616;52.470;13.436;2023-03-23T07:15:34;6.23;;;3.23;;
24435;SDS011;12616;52.470;13.436;2023-03-23T07:18:03;4.30;;;3.60;;
24435;SDS011;12616;52.470;13.436;2023-03-23T07:20:30;8.80;;;4.53;;
24435;SDS011;12616;52.470;13.436;2023-03-23T07:22:57;13.63;;;4.10;;
24435;SDS011;12616;52.470;13.436;2023-03-23T07:25:26;5.63;;;3.70;;
24435;SDS011;12616;52.470;13.436;2023-03-23T07:27:53;10.83;;;4.47;;
24435;SDS011;12616;52.470;13.436;2023-03-23T07:30:20;4.13;;;3.50;;
24435;SDS011;12616;52.470;13.436;2023-03-23T07:32:47;3.77;;;3.33;;
24435;SDS011;12616;52.470;13.436;2023-03-23T07:35:15;15.83;;;5.80;;
24435;SDS011;12616;52.470;13.436;2023-03-23T07:37:42;38.47;;;7.30;;
24435;SDS011;12616;52.470;13.436;2023-03-23T07:40:10;5.80;;;3.70;;
24435;SDS011;12616;52.470;13.436;2023-03-23T07:42:41;9.10;;;4.70;;
24435;SDS011;12616;52.470;13.436;2023-03-23T07:45:09;8.50;;;4.50;;
24435;SDS011;12616;52.470;13.436;2023-03-23T07:47:37;7.63;;;4.10;;
24435;SDS011;12616;52.470;13.436;2023-03-23T07:50:05;4.67;;;3.43;;
24435;SDS011;12616;52.470;13.436;2023-03-23T07:52:35;4.80;;;4.27;;
24435;SDS011;12616;52.470;13.436;2023-03-23T07:55:02;5.03;;;4.40;;
24435;SDS011;12616;52.470;13.436;2023-03-23T07:57:31;8.70;;;3.43;;
24435;SDS011;12616;52.470;13.436;2023-03-23T07:59:58;5.30;;;3.80;;
24435;SDS011;12616;52.470;13.436;2023-03-23T08:02:25;4.47;;;3.30;;
24435;SDS011;12616;52.470;13.436;2023-03-23T08:04:52;5.33;;;4.13;;
24435;SDS011;12616;52.470;13.436;2023-03-23T08:07:21;3.97;;;3.60;;
24435;SDS011;12616;52.470;13.436;2023-03-23T08:09:49;7.90;;;4.30;;
24435;SDS011;12616;52.470;13.436;2023-03-23T08:12:17;3.57;;;3.27;;
24435;SDS011;12616;52.470;13.436;2023-03-23T08:14:44;4.20;;;3.50;;
24435;SDS011;12616;52.470;13.436;2023-03-23T08:17:13;4.53;;;3.30;;
24435;SDS011;12616;52.470;13.436;2023-03-23T08:19:40;3.60;;;3.30;;
24435;SDS011;12616;52.470;13.436;2023-03-23T08:22:08;4.40;;;4.00;;
24435;SDS011;12616;52.470;13.436;2023-03-23T08:24:35;16.43;;;5.50;;
24435;SDS011;12616;52.470;13.436;2023-03-23T08:27:03;6.90;;;3.60;;
24435;SDS011;12616;52.470;13.436;2023-03-23T08:29:32;4.50;;;3.80;;
24435;SDS011;12616;52.470;13.436;2023-03-23T08:31:59;5.77;;;3.77;;
24435;SDS011;12616;52.470;13.436;2023-03-23T08:34:28;5.27;;;3.47;;
24435;SDS011;12616;52.470;13.436;2023-03-23T08:36:56;4.33;;;3.27;;
24435;SDS011;12616;52.470;13.436;2023-03-23T08:39:23;7.80;;;3.70;;
24435;SDS011;12616;52.470;13.436;2023-03-23T08:41:50;3.60;;;3.30;;
24435;SDS011;12616;52.470;13.436;2023-03-23T08:44:18;3.27;;;2.97;;
24435;SDS011;12616;52.470;13.436;2023-03-23T08:46:45;4.70;;;3.77;;
24435;SDS011;12616;52.470;13.436;2023-03-23T08:49:12;4.80;;;3.13;;
24435;SDS011;12616;52.470;13.436;2023-03-23T08:51:39;3.57;;;3.27;;
24435;SDS011;12616;52.470;13.436;2023-03-23T08:54:07;3.70;;;3.40;;
24435;SDS011;12616;52.470;13.436;2023-03-23T08:56:33;7.67;;;3.27;;
24435;SDS011;12616;52.470;13.436;2023-03-23T08:59:01;5.20;;;3.10;;
24435;SDS011;12616;52.470;13.436;2023-03-23T09:01:29;4.27;;;3.23;;
24435;SDS011;12616;52.470;13.436;2023-03-23T09:03:57;3.43;;;3.13;;
24435;SDS011;12616;52.470;13.436;2023-03-23T09:06:24;5.40;;;2.90;;
24435;SDS011;12616;52.470;13.436;2023-03-23T09:08:52;4.30;;;3.30;;
24435;SDS011;12616;52.470;13.436;2023-03-23T09:11:20;2.83;;;2.63;;
24435;SDS011;12616;52.470;13.436;2023-03-23T09:13:47;3.17;;;2.87;;
24435;SDS011;12616;52.470;13.436;2023-03-23T09:16:14;3.07;;;2.87;;
24435;SDS011;12616;52.470;13.436;2023-03-23T09:18:43;4.50;;;2.97;;
24435;SDS011;12616;52.470;13.436;2023-03-23T09:21:10;2.37;;;2.17;;
24435;SDS011;12616;52.470;13.436;2023-03-23T09:23:37;3.17;;;2.77;;
24435;SDS011;12616;52.470;13.436;2023-03-23T09:26:06;3.87;;;3.57;;
24435;SDS011;12616;52.470;13.436;2023-03-23T09:28:33;2.93;;;2.73;;
24435;SDS011;12616;52.470;13.436;2023-03-23T09:31:00;2.70;;;2.50;;
24435;SDS011;12616;52.470;13.436;2023-03-23T09:33:27;4.10;;;3.80;;
24435;SDS011;12616;52.470;13.436;2023-03-23T09:36:00;4.93;;;2.63;;
24435;SDS011;12616;52.470;13.436;2023-03-23T09:38:29;5.33;;;2.37;;
24435;SDS011;12616;52.470;13.436;2023-03-23T09:40:59;3.50;;;2.40;;
24435;SDS011;12616;52.470;13.436;2023-03-23T09:43:38;2.93;;;2.70;;
24435;SDS011;12616;52.470;13.436;2023-03-23T09:46:21;3.20;;;2.90;;
24435;SDS011;12616;52.470;13.436;2023-03-23T09:48:56;2.67;;;2.50;;
24435;SDS011;12616;52.470;13.436;2023-03-23T09:51:34;3.27;;;2.47;;
24435;SDS011;12616;52.470;13.436;2023-03-23T09:54:10;2.87;;;2.33;;
24435;SDS011;12616;52.470;13.436;2023-03-23T09:56:41;2.57;;;2.37;;
24435;SDS011;12616;52.470;13.436;2023-03-23T09:59:11;2.47;;;2.27;;
24435;SDS011;12616;52.470;13.436;2023-03-23T10:01:43;3.57;;;2.33;;
24435;SDS011;12616;52.470;13.436;2023-03-23T10:04:14;4.17;;;2.33;;
24435;SDS011;12616;52.470;13.436;2023-03-23T10:06:50;2.67;;;2.43;;
24435;SDS011;12616;52.470;13.436;2023-03-23T10:09:18;3.57;;;2.27;;
24435;SDS011;12616;52.470;13.436;2023-03-23T10:11:49;2.90;;;2.43;;
24435;SDS011;12616;52.470;13.436;2023-03-23T10:14:34;2.67;;;2.47;;
24435;SDS011;12616;52.470;13.436;2023-03-23T10:17:21;2.23;;;2.03;;
24435;SDS011;12616;52.470;13.436;2023-03-23T10:19:54;2.57;;;2.37;;
24435;SDS011;12616;52.470;13.436;2023-03-23T10:22:29;3.53;;;2.90;;
24435;SDS011;12616;52.470;13.436;2023-03-23T10:25:01;3.20;;;2.23;;
24435;SDS011;12616;52.470;13.436;2023-03-23T10:27:35;3.70;;;2.70;;
24435;SDS011;12616;52.470;13.436;2023-03-23T10:30:13;8.20;;;6.40;;
24435;SDS011;12616;52.470;13.436;2023-03-23T10:32:44;6.13;;;2.83;;
24435;SDS011;12616;52.470;13.436;2023-03-23T10:35:16;7.00;;;3.10;;
24435;SDS011;12616;52.470;13.436;2023-03-23T10:37:48;2.80;;;2.13;;
24435;SDS011;12616;52.470;13.436;2023-03-23T10:40:19;2.93;;;2.67;;
24435;SDS011;12616;52.470;13.436;2023-03-23T10:42:50;1.77;;;1.50;;
24435;SDS011;12616;52.470;13.436;2023-03-23T10:45:20;2.73;;;2.53;;
24435;SDS011;12616;52.470;13.436;2023-03-23T10:47:51;4.27;;;2.57;;
24435;SDS011;12616;52.470;13.436;2023-03-23T10:50:24;6.13;;;2.73;;
24435;SDS011;12616;52.470;13.436;2023-03-23T10:52:56;6.10;;;2.47;;
24435;SDS011;12616;52.470;13.436;2023-03-23T10:55:25;2.90;;;2.57;;
24435;SDS011;12616;52.470;13.436;2023-03-23T10:58:03;2.00;;;1.90;;
24435;SDS011;12616;52.470;13.436;2023-03-23T11:00:32;8.03;;;1.80;;
24435;SDS011;12616;52.470;13.436;2023-03-23T11:03:01;3.67;;;1.90;;
24435;SDS011;12616;52.470;13.436;2023-03-23T11:05:34;5.80;;;2.30;;
24435;SDS011;12616;52.470;13.436;2023-03-23T11:08:09;1.70;;;1.60;;
24435;SDS011;12616;52.470;13.436;2023-03-23T11:10:39;2.23;;;1.90;;
24435;SDS011;12616;52.470;13.436;2023-03-23T11:13:13;5.50;;;2.90;;
24435;SDS011;12616;52.470;13.436;2023-03-23T11:15:43;2.40;;;2.20;;
24435;SDS011;12616;52.470;13.436;2023-03-23T11:18:12;2.23;;;1.90;;
24435;SDS011;12616;52.470;13.436;2023-03-23T11:20:45;3.77;;;2.70;;
24435;SDS011;12616;52.470;13.436;2023-03-23T11:23:18;3.70;;;2.17;;
24435;SDS011;12616;52.470;13.436;2023-03-23T11:25:53;4.57;;;3.03;;
24435;SDS011;12616;52.470;13.436;2023-03-23T11:28:25;6.20;;;2.60;;
24435;SDS011;12616;52.470;13.436;2023-03-23T11:30:56;4.30;;;2.50;;
24435;SDS011;12616;52.470;13.436;2023-03-23T11:33:28;3.87;;;2.60;;
24435;SDS011;12616;52.470;13.436;2023-03-23T11:35:55;2.57;;;2.37;;
24435;SDS011;12616;52.470;13.436;2023-03-23T11:38:24;2.97;;;1.93;;
24435;SDS011;12616;52.470;13.436;2023-03-23T11:40:53;2.80;;;2.30;;
24435;SDS011;12616;52.470;13.436;2023-03-23T11:43:20;2.40;;;2.20;;
24435;SDS011;12616;52.470;13.436;2023-03-23T11:45:51;3.90;;;2.00;;
24435;SDS011;12616;52.470;13.436;2023-03-23T11:48:26;2.60;;;2.40;;
24435;SDS011;12616;52.470;13.436;2023-03-23T11:51:01;3.13;;;1.80;;
24435;SDS011;12616;52.470;13.436;2023-03-23T11:53:37;3.10;;;2.77;;
24435;SDS011;12616;52.470;13.436;2023-03-23T11:56:13;4.50;;;3.00;;
24435;SDS011;12616;52.470;13.436;2023-03-23T11:58:45;2.70;;;2.50;;
24435;SDS011;12616;52.470;13.436;2023-03-23T12:01:15;3.23;;;2.60;;
24435;SDS011;12616;52.470;13.436;2023-03-23T12:03:57;3.53;;;2.03;;
24435;SDS011;12616;52.470;13.436;2023-03-23T12:06:32;4.10;;;3.77;;
24435;SDS011;12616;52.470;13.436;2023-03-23T12:09:11;3.20;;;2.90;;
24435;SDS011;12616;52.470;13.436;2023-03-23T12:11:52;2.60;;;2.40;;
24435;SDS011;12616;52.470;13.436;2023-03-23T12:14:29;2.80;;;2.20;;
24435;SDS011;12616;52.470;13.436;2023-03-23T12:17:10;2.43;;;2.07;;
24435;SDS011;12616;52.470;13.436;2023-03-23T12:19:46;2.40;;;2.27;;
24435;SDS011;12616;52.470;13.436;2023-03-23T12:22:26;2.83;;;2.50;;
24435;SDS011;12616;52.470;13.436;2023-03-23T12:25:12;2.37;;;2.10;;
24435;SDS011;12616;52.470;13.436;2023-03-23T12:28:01;2.80;;;2.33;;
24435;SDS011;12616;52.470;13.436;2023-03-23T12:30:38;2.63;;;2.03;;
24435;SDS011;12616;52.470;13.436;2023-03-23T12:33:16;3.43;;;2.70;;
24435;SDS011;12616;52.470;13.436;2023-03-23T12:35:53;5.40;;;2.50;;
24435;SDS011;12616;52.470;13.436;2023-03-23T12:38:32;5.07;;;2.00;;
24435;SDS011;12616;52.470;13.436;2023-03-23T12:41:17;2.30;;;2.03;;
24435;SDS011;12616;52.470;13.436;2023-03-23T12:43:49;2.17;;;1.97;;
24435;SDS011;12616;52.470;13.436;2023-03-23T12:46:28;4.67;;;2.50;;
24435;SDS011;12616;52.470;13.436;2023-03-23T12:49:05;2.73;;;2.53;;
24435;SDS011;12616;52.470;13.436;2023-03-23T12:51:37;5.97;;;3.57;;
24435;SDS011;12616;52.470;13.436;2023-03-23T12:54:10;5.47;;;2.67;;
24435;SDS011;12616;52.470;13.436;2023-03-23T12:56:44;2.63;;;2.43;;
24435;SDS011;12616;52.470;13.436;2023-03-23T12:59:17;2.80;;;2.60;;
24435;SDS011;12616;52.470;13.436;2023-03-23T13:01:50;2.73;;;2.33;;
24435;SDS011;12616;52.470;13.436;2023-03-23T13:04:22;2.57;;;2.30;;
24435;SDS011;12616;52.470;13.436;2023-03-23T13:06:52;4.73;;;2.80;;
24435;SDS011;12616;52.470;13.436;2023-03-23T13:09:20;6.30;;;2.57;;
24435;SDS011;12616;52.470;13.436;2023-03-23T13:11:54;3.40;;;2.20;;
24435;SDS011;12616;52.470;13.436;2023-03-23T13:14:26;18.53;;;2.70;;
24435;SDS011;12616;52.470;13.436;2023-03-23T13:17:03;6.27;;;2.80;;
24435;SDS011;12616;52.470;13.436;2023-03-23T13:19:49;8.70;;;2.80;;
24435;SDS011;12616;52.470;13.436;2023-03-23T13:22:32;3.50;;;2.10;;
24435;SDS011;12616;52.470;13.436;2023-03-23T13:25:03;2.03;;;1.83;;
24435;SDS011;12616;52.470;13.436;2023-03-23T13:27:36;5.70;;;2.37;;
24435;SDS011;12616;52.470;13.436;2023-03-23T13:30:03;4.07;;;2.20;;
24435;SDS011;12616;52.470;13.436;2023-03-23T13:32:36;5.23;;;2.73;;
24435;SDS011;12616;52.470;13.436;2023-03-23T13:35:11;7.53;;;2.43;;
24435;SDS011;12616;52.470;13.436;2023-03-23T13:37:41;3.30;;;2.20;;
24435;SDS011;12616;52.470;13.436;2023-03-23T13:40:16;2.03;;;1.87;;
24435;SDS011;12616;52.470;13.436;2023-03-23T13:42:51;9.37;;;2.90;;
24435;SDS011;12616;52.470;13.436;2023-03-23T13:45:21;12.23;;;2.47;;
24435;SDS011;12616;52.470;13.436;2023-03-23T13:47:50;6.13;;;2.23;;
24435;SDS011;12616;52.470;13.436;2023-03-23T13:50:29;4.10;;;2.47;;
24435;SDS011;12616;52.470;13.436;2023-03-23T13:52:58;3.83;;;2.27;;
24435;SDS011;12616;52.470;13.436;2023-03-23T13:55:36;2.73;;;2.37;;
24435;SDS011;12616;52.470;13.436;2023-03-23T13:58:20;5.30;;;1.80;;
24435;SDS011;12616;52.470;13.436;2023-03-23T14:00:50;2.07;;;1.97;;
24435;SDS011;12616;52.470;13.436;2023-03-23T14:03:36;2.33;;;1.70;;
24435;SDS011;12616;52.470;13.436;2023-03-23T14:06:05;6.93;;;3.93;;
24435;SDS011;12616;52.470;13.436;2023-03-23T14:08:39;10.80;;;2.13;;
24435;SDS011;12616;52.470;13.436;2023-03-23T14:11:12;3.63;;;2.30;;
24435;SDS011;12616;52.470;13.436;2023-03-23T14:13:44;6.30;;;1.97;;
24435;SDS011;12616;52.470;13.436;2023-03-23T14:16:17;2.40;;;2.00;;
24435;SDS011;12616;52.470;13.436;2023-03-23T14:18:52;4.27;;;2.10;;
24435;SDS011;12616;52.470;13.436;2023-03-23T14:21:31;3.93;;;2.07;;
24435;SDS011;12616;52.470;13.436;2023-03-23T14:24:01;1.80;;;1.70;;
24435;SDS011;12616;52.470;13.436;2023-03-23T14:26:29;3.63;;;2.20;;
24435;SDS011;12616;52.470;13.436;2023-03-23T14:29:02;6.40;;;2.17;;
24435;SDS011;12616;52.470;13.436;2023-03-23T14:31:30;3.03;;;2.13;;
24435;SDS011;12616;52.470;13.436;2023-03-23T14:34:01;7.30;;;2.90;;
24435;SDS011;12616;52.470;13.436;2023-03-23T14:36:31;13.10;;;3.90;;
24435;SDS011;12616;52.470;13.436;2023-03-23T14:39:01;7.37;;;2.93;;
24435;SDS011;12616;52.470;13.436;2023-03-23T14:41:32;24.30;;;5.10;;
24435;SDS011;12616;52.470;13.436;2023-03-23T14:44:03;2.60;;;2.40;;
24435;SDS011;12616;52.470;13.436;2023-03-23T14:46:33;4.03;;;2.67;;
24435;SDS011;12616;52.470;13.436;2023-03-23T14:49:02;4.47;;;2.80;;
24435;SDS011;12616;52.470;13.436;2023-03-23T14:51:30;5.70;;;3.40;;
24435;SDS011;12616;52.470;13.436;2023-03-23T14:53:58;6.43;;;3.00;;
24435;SDS011;12616;52.470;13.436;2023-03-23T14:56:31;4.43;;;2.47;;
24435;SDS011;12616;52.470;13.436;2023-03-23T14:59:04;3.40;;;2.63;;
24435;SDS011;12616;52.470;13.436;2023-03-23T15:01:35;4.03;;;2.47;;